createdAt,value
2023-02-05T00:02:08.507Z,13.67
2023-02-05T00:04:36.554Z,14.03
2023-02-05T00:07:05.497Z,13.93
2023-02-05T00:09:33.266Z,13.17
2023-02-05T00:12:00.751Z,15.40
2023-02-05T00:14:28.370Z,14.87
2023-02-05T00:16:55.999Z,14.97
2023-02-05T00:19:23.417Z,14.20
2023-02-05T00:21:50.913Z,14.30
2023-02-05T00:24:19.735Z,14.03
2023-02-05T00:26:47.158Z,14.27
2023-02-05T00:29:14.818Z,15.00
2023-02-05T00:31:42.401Z,14.90
2023-02-05T00:34:09.926Z,15.40
2023-02-05T00:36:37.354Z,15.03
2023-02-05T00:39:04.892Z,15.07
2023-02-05T00:41:33.730Z,15.00
2023-02-05T00:44:01.196Z,14.53
2023-02-05T00:46:28.750Z,14.40
2023-02-05T00:48:56.122Z,14.83
2023-02-05T00:51:23.561Z,14.43
2023-02-05T00:53:51.027Z,14.50
2023-02-05T00:56:18.488Z,14.60
2023-02-05T00:58:49.027Z,15.60
2023-02-05T01:01:16.756Z,14.77
2023-02-05T01:03:44.452Z,15.57
2023-02-05T01:06:11.929Z,15.90
2023-02-05T01:08:39.866Z,15.80
2023-02-05T01:11:08.519Z,14.90
2023-02-05T01:13:36.039Z,16.10
2023-02-05T01:16:05.175Z,15.03
2023-02-05T01:18:32.754Z,15.00
2023-02-05T01:21:00.658Z,15.10
2023-02-05T01:23:28.195Z,14.70
2023-02-05T01:25:55.615Z,14.67
2023-02-05T01:28:23.038Z,14.80
2023-02-05T01:30:50.694Z,16.27
2023-02-05T01:33:19.891Z,14.73
2023-02-05T01:35:47.348Z,14.93
2023-02-05T01:38:15.631Z,14.60
2023-02-05T01:40:43.146Z,15.27
2023-02-05T01:43:12.617Z,14.43
2023-02-05T01:45:54.980Z,15.40
2023-02-05T01:48:25.848Z,14.33
2023-02-05T01:50:55.415Z,14.20
2023-02-05T01:53:24.409Z,15.00
2023-02-05T01:55:58.386Z,15.10
2023-02-05T01:58:27.263Z,15.40
2023-02-05T02:00:54.821Z,15.67
2023-02-05T02:03:24.726Z,14.23
2023-02-05T02:05:53.553Z,14.63
2023-02-05T02:08:21.113Z,15.40
2023-02-05T02:10:49.399Z,14.33
2023-02-05T02:13:17.151Z,13.43
2023-02-05T02:15:44.925Z,14.47
2023-02-05T02:18:28.078Z,15.60
2023-02-05T02:21:11.727Z,14.90
2023-02-05T02:23:41.405Z,14.70
2023-02-05T02:26:24.381Z,14.37
2023-02-05T02:28:55.755Z,15.00
2023-02-05T02:31:27.101Z,14.23
2023-02-05T02:33:57.421Z,14.80
2023-02-05T02:36:30.205Z,14.97
2023-02-05T02:39:02.257Z,14.80
2023-02-05T02:41:31.262Z,14.73
2023-02-05T02:44:00.680Z,14.60
2023-02-05T02:46:29.630Z,14.67
2023-02-05T02:48:59.016Z,14.87
2023-02-05T02:51:27.981Z,15.23
2023-02-05T02:53:57.393Z,15.53
2023-02-05T02:56:25.503Z,14.20
2023-02-05T02:58:55.229Z,14.00
2023-02-05T03:01:25.444Z,14.23
2023-02-05T03:03:55.883Z,14.47
2023-02-05T03:06:23.706Z,14.50
2023-02-05T03:08:53.775Z,14.43
2023-02-05T03:11:21.600Z,15.57
2023-02-05T03:13:49.181Z,14.40
2023-02-05T03:16:19.382Z,14.20
2023-02-05T03:18:48.743Z,15.43
2023-02-05T03:21:18.245Z,14.70
2023-02-05T03:23:46.174Z,14.17
2023-02-05T03:26:26.852Z,14.20
2023-02-05T03:28:54.485Z,14.53
2023-02-05T03:31:24.341Z,13.37
2023-02-05T03:33:59.303Z,15.13
2023-02-05T03:36:31.036Z,14.10
2023-02-05T03:39:13.128Z,15.70
2023-02-05T03:41:56.758Z,13.60
2023-02-05T03:44:28.740Z,14.10
2023-02-05T03:46:59.853Z,14.00
2023-02-05T03:49:33.059Z,13.60
2023-02-05T03:52:03.233Z,14.30
2023-02-05T03:54:33.641Z,14.20
2023-02-05T03:57:05.705Z,13.90
2023-02-05T03:59:34.015Z,14.57
2023-02-05T04:02:03.063Z,14.33
2023-02-05T04:04:32.178Z,14.97
2023-02-05T04:06:59.607Z,14.50
2023-02-05T04:09:27.136Z,14.57
2023-02-05T04:11:54.566Z,14.40
2023-02-05T04:14:22.186Z,15.07
2023-02-05T04:16:49.612Z,14.47
2023-02-05T04:19:16.982Z,13.93
2023-02-05T04:21:45.809Z,14.70
2023-02-05T04:24:13.205Z,14.53
2023-02-05T04:26:40.613Z,14.80
2023-02-05T04:29:08.017Z,14.83
2023-02-05T04:31:35.503Z,14.57
2023-02-05T04:34:02.970Z,15.20
2023-02-05T04:36:30.465Z,15.50
2023-02-05T04:38:59.282Z,14.77
2023-02-05T04:41:26.821Z,13.80
2023-02-05T04:43:54.277Z,15.80
2023-02-05T04:46:21.859Z,14.80
2023-02-05T04:48:49.254Z,14.13
2023-02-05T04:51:17.282Z,15.30
2023-02-05T04:53:44.868Z,14.33
2023-02-05T04:56:14.198Z,13.93
2023-02-05T04:58:42.021Z,13.90
2023-02-05T05:01:12.362Z,14.13
2023-02-05T05:03:40.157Z,14.63
2023-02-05T05:06:08.070Z,14.07
2023-02-05T05:08:35.879Z,13.77
2023-02-05T05:11:07.136Z,13.87
2023-02-05T05:13:36.253Z,14.50
2023-02-05T05:16:04.741Z,13.63
2023-02-05T05:18:32.791Z,14.40
2023-02-05T05:21:00.344Z,14.73
2023-02-05T05:23:28.123Z,14.50
2023-02-05T05:25:55.780Z,14.17
2023-02-05T05:28:23.200Z,15.23
2023-02-05T05:30:52.095Z,16.13
2023-02-05T05:33:19.637Z,15.00
2023-02-05T05:35:47.072Z,15.67
2023-02-05T05:38:14.547Z,19.40
2023-02-05T05:40:59.323Z,16.00
2023-02-05T05:43:44.399Z,16.77
2023-02-05T05:46:14.655Z,16.10
2023-02-05T05:48:42.192Z,14.70
2023-02-05T05:51:09.562Z,14.07
2023-02-05T05:53:36.980Z,13.93
2023-02-05T05:56:04.581Z,13.20
2023-02-05T05:58:32.128Z,13.83
2023-02-05T06:00:59.526Z,14.63
2023-02-05T06:03:28.364Z,13.60
2023-02-05T06:05:55.859Z,13.20
2023-02-05T06:08:23.352Z,13.40
2023-02-05T06:10:50.777Z,13.43
2023-02-05T06:13:18.260Z,15.70
2023-02-05T06:15:45.700Z,16.20
2023-02-05T06:18:13.192Z,16.30
2023-02-05T06:20:41.981Z,15.10
2023-02-05T06:23:09.419Z,15.47
2023-02-05T06:25:36.877Z,16.40
2023-02-05T06:28:04.457Z,15.27
2023-02-05T06:30:31.891Z,14.53
2023-02-05T06:32:59.333Z,14.10
2023-02-05T06:35:26.798Z,13.40
2023-02-05T06:37:55.633Z,13.80
2023-02-05T06:40:25.858Z,14.10
2023-02-05T06:42:53.522Z,14.87
2023-02-05T06:45:20.964Z,15.40
2023-02-05T06:47:48.652Z,14.50
2023-02-05T06:50:16.208Z,13.93
2023-02-05T06:52:43.621Z,14.30
2023-02-05T06:55:12.450Z,13.33
2023-02-05T06:57:39.871Z,14.17
2023-02-05T07:00:08.036Z,13.80
2023-02-05T07:02:35.603Z,14.27
2023-02-05T07:05:03.176Z,13.53
2023-02-05T07:07:30.653Z,14.17
2023-02-05T07:09:58.065Z,13.90
2023-02-05T07:12:26.870Z,13.50
2023-02-05T07:14:54.315Z,14.37
2023-02-05T07:17:21.888Z,13.30
2023-02-05T07:19:49.372Z,13.30
2023-02-05T07:22:17.214Z,14.40
2023-02-05T07:24:44.671Z,13.33
2023-02-05T07:27:12.088Z,13.40
2023-02-05T07:29:41.013Z,14.03
2023-02-05T07:32:08.445Z,14.30
2023-02-05T07:34:36.089Z,13.73
2023-02-05T07:37:03.685Z,14.30
2023-02-05T07:39:31.281Z,15.20
2023-02-05T07:41:58.778Z,15.00
2023-02-05T07:44:26.231Z,14.80
2023-02-05T07:46:55.100Z,14.13
2023-02-05T07:49:22.713Z,14.87
2023-02-05T07:51:50.232Z,14.00
2023-02-05T07:54:17.699Z,14.77
2023-02-05T07:56:45.184Z,14.30
2023-02-05T07:59:12.692Z,15.57
2023-02-05T08:01:40.109Z,14.30
2023-02-05T08:04:09.343Z,14.57
2023-02-05T08:06:36.824Z,14.50
2023-02-05T08:09:04.225Z,16.23
2023-02-05T08:11:32.643Z,17.60
2023-02-05T08:14:01.538Z,17.77
2023-02-05T08:16:29.076Z,18.60
2023-02-05T08:18:56.625Z,19.43
2023-02-05T08:21:25.505Z,19.90
2023-02-05T08:23:53.918Z,19.13
2023-02-05T08:26:21.679Z,19.60
2023-02-05T08:28:49.098Z,19.20
2023-02-05T08:31:17.828Z,18.33
2023-02-05T08:33:45.718Z,19.20
2023-02-05T08:36:13.154Z,19.27
2023-02-05T08:38:42.049Z,19.97
2023-02-05T08:41:12.622Z,20.50
2023-02-05T08:43:42.046Z,19.93
2023-02-05T08:46:09.701Z,19.03
2023-02-05T08:48:37.161Z,19.47
2023-02-05T08:51:04.980Z,18.40
2023-02-05T08:53:32.603Z,18.30
2023-02-05T08:56:02.361Z,18.30
2023-02-05T08:58:30.167Z,16.30
2023-02-05T09:01:01.433Z,17.17
2023-02-05T09:03:29.018Z,17.87
2023-02-05T09:05:56.435Z,17.90
2023-02-05T09:08:23.948Z,17.80
2023-02-05T09:10:51.608Z,18.20
2023-02-05T09:13:20.528Z,18.43
2023-02-05T09:15:49.225Z,16.83
2023-02-05T09:18:16.683Z,14.77
2023-02-05T09:20:44.900Z,14.23
2023-02-05T09:23:13.334Z,15.50
2023-02-05T09:25:40.941Z,14.33
2023-02-05T09:28:09.849Z,13.40
2023-02-05T09:30:38.866Z,12.70
2023-02-05T09:33:06.743Z,12.83
2023-02-05T09:35:34.510Z,12.80
2023-02-05T09:38:03.422Z,11.60
2023-02-05T09:40:33.777Z,11.77
2023-02-05T09:43:04.375Z,9.30
2023-02-05T09:45:46.876Z,9.00
2023-02-05T09:48:25.705Z,7.80
2023-02-05T09:50:53.491Z,8.17
2023-02-05T09:53:22.261Z,5.80
2023-02-05T09:55:50.057Z,6.80
2023-02-05T09:58:18.970Z,4.70
2023-02-05T10:00:49.478Z,3.70
2023-02-05T10:03:22.612Z,4.00
2023-02-05T10:05:57.593Z,3.27
2023-02-05T10:08:28.397Z,2.60
2023-02-05T10:10:56.259Z,2.67
2023-02-05T10:13:35.927Z,2.87
2023-02-05T10:16:23.377Z,3.23
2023-02-05T10:19:09.218Z,3.07
2023-02-05T10:21:41.315Z,3.13
2023-02-05T10:24:17.458Z,4.20
2023-02-05T10:26:46.585Z,3.58
2023-02-05T10:29:18.004Z,3.63
2023-02-05T10:31:53.774Z,3.90
2023-02-05T10:34:29.493Z,4.03
2023-02-05T10:36:56.873Z,4.20
2023-02-05T10:39:26.664Z,3.80
2023-02-05T10:41:57.561Z,3.93
2023-02-05T10:44:28.395Z,3.83
2023-02-05T10:46:58.475Z,4.07
2023-02-05T10:49:29.972Z,4.30
2023-02-05T10:51:57.332Z,4.17
2023-02-05T10:54:27.323Z,3.60
2023-02-05T10:56:54.841Z,4.20
2023-02-05T10:59:23.549Z,4.60
2023-02-05T11:01:51.517Z,3.80
2023-02-05T11:04:22.843Z,4.20
2023-02-05T11:06:53.196Z,4.33
2023-02-05T11:09:31.460Z,4.27
2023-02-05T11:11:59.530Z,4.40
2023-02-05T11:14:29.727Z,5.00
2023-02-05T11:16:57.203Z,4.47
2023-02-05T11:19:26.649Z,5.43
2023-02-05T11:21:56.068Z,4.77
2023-02-05T11:24:24.937Z,5.27
2023-02-05T11:27:11.796Z,5.03
2023-02-05T11:29:39.221Z,5.13
2023-02-05T11:32:18.815Z,5.30
2023-02-05T11:34:46.294Z,5.40
2023-02-05T11:37:17.200Z,5.27
2023-02-05T11:39:45.695Z,5.70
2023-02-05T11:42:18.470Z,5.60
2023-02-05T11:44:49.123Z,5.00
2023-02-05T11:47:22.493Z,5.03
2023-02-05T11:49:51.387Z,5.43
2023-02-05T11:52:27.130Z,5.27
2023-02-05T11:54:54.843Z,3.90
2023-02-05T11:57:31.639Z,3.80
2023-02-05T11:59:59.782Z,4.17
2023-02-05T12:02:29.738Z,4.37
2023-02-05T12:04:59.403Z,4.00
2023-02-05T12:07:30.353Z,4.10
2023-02-05T12:09:59.938Z,4.00
2023-02-05T12:12:30.368Z,4.53
2023-02-05T12:15:02.824Z,4.60
2023-02-05T12:17:35.117Z,4.70
2023-02-05T12:20:10.933Z,4.57
2023-02-05T12:22:50.613Z,4.60
2023-02-05T12:25:24.800Z,4.50
2023-02-05T12:28:02.545Z,4.80
2023-02-05T12:30:38.046Z,4.23
2023-02-05T12:33:17.705Z,4.10
2023-02-05T12:35:49.656Z,4.00
2023-02-05T12:38:32.139Z,4.07
2023-02-05T12:41:07.903Z,4.37
2023-02-05T12:43:38.550Z,4.80
2023-02-05T12:46:11.972Z,4.53
2023-02-05T12:48:46.702Z,4.47
2023-02-05T12:51:25.473Z,4.60
2023-02-05T12:54:02.035Z,4.67
2023-02-05T12:56:36.693Z,4.00
2023-02-05T12:59:07.241Z,4.13
2023-02-05T13:01:38.716Z,4.57
2023-02-05T13:04:07.517Z,3.83
2023-02-05T13:06:37.733Z,4.20
2023-02-05T13:09:09.308Z,4.17
2023-02-05T13:11:39.436Z,4.20
2023-02-05T13:14:09.361Z,4.20
2023-02-05T13:16:41.097Z,4.00
2023-02-05T13:19:15.392Z,3.63
2023-02-05T13:22:03.311Z,3.97
2023-02-05T13:24:51.807Z,3.63
2023-02-05T13:27:39.607Z,3.33
2023-02-05T13:30:10.449Z,3.17
2023-02-05T13:32:38.769Z,3.33
2023-02-05T13:35:08.448Z,3.17
2023-02-05T13:37:48.905Z,3.63
2023-02-05T13:40:37.106Z,3.20
2023-02-05T13:43:25.427Z,3.20
2023-02-05T13:46:04.841Z,4.20
2023-02-05T13:48:47.149Z,3.20
2023-02-05T13:51:20.177Z,3.60
2023-02-05T13:54:06.326Z,3.20
2023-02-05T13:56:42.356Z,3.33
2023-02-05T13:59:14.322Z,3.50
2023-02-05T14:01:44.057Z,4.20
2023-02-05T14:04:18.626Z,3.77
2023-02-05T14:06:50.134Z,3.40
2023-02-05T14:09:22.289Z,4.23
2023-02-05T14:11:57.001Z,4.23
2023-02-05T14:14:34.896Z,3.70
2023-02-05T14:17:23.756Z,3.60
2023-02-05T14:19:56.820Z,3.60
2023-02-05T14:22:35.588Z,3.70
2023-02-05T14:25:03.028Z,3.57
2023-02-05T14:27:45.809Z,3.40
2023-02-05T14:30:38.521Z,3.67
2023-02-05T14:33:26.215Z,3.70
2023-02-05T14:35:56.279Z,3.17
2023-02-05T14:38:24.796Z,3.10
2023-02-05T14:41:02.599Z,3.33
2023-02-05T14:43:32.831Z,3.57
2023-02-05T14:46:03.281Z,3.43
2023-02-05T14:48:32.975Z,3.03
2023-02-05T14:51:05.356Z,2.77
2023-02-05T14:53:33.722Z,2.90
2023-02-05T14:56:02.264Z,2.60
2023-02-05T14:58:32.352Z,3.10
2023-02-05T15:01:18.493Z,2.90
2023-02-05T15:03:47.284Z,2.60
2023-02-05T15:06:15.654Z,2.97
2023-02-05T15:08:51.952Z,2.97
2023-02-05T15:11:23.585Z,2.53
2023-02-05T15:14:09.725Z,2.50
2023-02-05T15:16:38.344Z,2.70
2023-02-05T15:19:08.010Z,2.53
2023-02-05T15:21:38.120Z,2.03
2023-02-05T15:24:07.484Z,2.40
2023-02-05T15:26:42.784Z,2.53
2023-02-05T15:29:14.450Z,2.50
2023-02-05T15:31:43.027Z,2.40
2023-02-05T15:34:31.941Z,2.67
2023-02-05T15:37:01.857Z,2.47
2023-02-05T15:39:32.009Z,2.50
2023-02-05T15:42:01.029Z,2.40
2023-02-05T15:44:29.471Z,1.90
2023-02-05T15:46:57.752Z,2.10
2023-02-05T15:49:29.060Z,2.00
2023-02-05T15:51:58.044Z,2.00
2023-02-05T15:54:25.797Z,1.80
2023-02-05T15:56:53.847Z,2.10
2023-02-05T15:59:23.675Z,1.80
2023-02-05T16:01:54.616Z,1.80
2023-02-05T16:04:28.819Z,2.20
2023-02-05T16:06:56.403Z,2.13
2023-02-05T16:09:25.829Z,2.30
2023-02-05T16:11:53.253Z,2.70
2023-02-05T16:14:21.438Z,3.80
2023-02-05T16:16:56.084Z,4.90
2023-02-05T16:19:26.016Z,5.73
2023-02-05T16:21:55.588Z,3.40
2023-02-05T16:24:26.995Z,2.70
2023-02-05T16:26:56.529Z,2.50
2023-02-05T16:29:28.119Z,3.90
2023-02-05T16:31:58.851Z,3.63
2023-02-05T16:34:26.434Z,3.20
2023-02-05T16:36:54.620Z,3.00
2023-02-05T16:39:24.724Z,2.90
2023-02-05T16:42:03.146Z,3.70
2023-02-05T16:44:32.586Z,4.40
2023-02-05T16:47:07.562Z,5.20
2023-02-05T16:49:34.956Z,5.63
2023-02-05T16:52:03.488Z,4.10
2023-02-05T16:54:32.335Z,3.37
2023-02-05T16:57:06.742Z,3.67
2023-02-05T16:59:35.747Z,4.73
2023-02-05T17:02:04.301Z,6.40
2023-02-05T17:04:32.972Z,6.27
2023-02-05T17:07:01.443Z,6.70
2023-02-05T17:09:31.788Z,6.97
2023-02-05T17:12:14.158Z,7.37
2023-02-05T17:14:52.664Z,7.23
2023-02-05T17:17:20.317Z,8.20
2023-02-05T17:20:02.711Z,7.27
2023-02-05T17:22:30.137Z,7.53
2023-02-05T17:24:57.560Z,8.67
2023-02-05T17:27:27.405Z,7.03
2023-02-05T17:29:56.483Z,6.17
2023-02-05T17:32:24.225Z,5.73
2023-02-05T17:34:51.721Z,4.80
2023-02-05T17:37:19.150Z,4.60
2023-02-05T17:39:46.712Z,4.33
2023-02-05T17:42:19.908Z,4.37
2023-02-05T17:44:47.402Z,4.63
2023-02-05T17:47:16.592Z,4.60
2023-02-05T17:49:44.136Z,5.50
2023-02-05T17:52:11.525Z,4.80
2023-02-05T17:54:39.205Z,4.87
2023-02-05T17:57:14.130Z,5.00
2023-02-05T17:59:43.042Z,5.40
2023-02-05T18:02:10.557Z,5.63
2023-02-05T18:04:39.377Z,6.10
2023-02-05T18:07:08.041Z,6.60
2023-02-05T18:09:35.488Z,6.10
2023-02-05T18:12:03.174Z,5.03
2023-02-05T18:14:30.617Z,4.40
2023-02-05T18:16:58.041Z,4.63
2023-02-05T18:19:25.539Z,4.37
2023-02-05T18:21:54.381Z,3.97
2023-02-05T18:24:21.829Z,5.00
2023-02-05T18:26:52.538Z,6.10
2023-02-05T18:29:21.367Z,5.53
2023-02-05T18:31:48.806Z,5.50
2023-02-05T18:34:16.319Z,5.10
2023-02-05T18:36:43.744Z,4.90
2023-02-05T18:39:12.544Z,5.90
2023-02-05T18:41:40.880Z,5.20
2023-02-05T18:44:08.277Z,6.27
2023-02-05T18:46:35.808Z,6.70
2023-02-05T18:49:03.312Z,6.33
2023-02-05T18:51:30.946Z,7.40
2023-02-05T18:53:58.674Z,6.53
2023-02-05T18:56:28.303Z,5.53
2023-02-05T18:58:59.152Z,6.77
2023-02-05T19:01:29.126Z,7.53
2023-02-05T19:03:57.287Z,5.47
2023-02-05T19:06:24.712Z,5.37
2023-02-05T19:08:52.220Z,5.67
2023-02-05T19:11:20.837Z,5.33
2023-02-05T19:13:55.114Z,4.13
2023-02-05T19:16:22.531Z,4.90
2023-02-05T19:18:49.928Z,5.07
2023-02-05T19:21:18.361Z,5.00
2023-02-05T19:23:46.236Z,4.30
2023-02-05T19:26:15.304Z,4.20
2023-02-05T19:28:43.052Z,4.47
2023-02-05T19:31:13.227Z,4.80
2023-02-05T19:33:41.331Z,4.70
2023-02-05T19:36:10.066Z,4.53
2023-02-05T19:38:38.126Z,4.60
2023-02-05T19:41:08.963Z,4.37
2023-02-05T19:43:36.558Z,4.90
2023-02-05T19:46:04.770Z,4.30
2023-02-05T19:48:33.745Z,3.87
2023-02-05T19:51:03.972Z,3.97
2023-02-05T19:53:31.828Z,4.73
2023-02-05T19:56:06.735Z,7.67
2023-02-05T19:58:34.266Z,16.83
2023-02-05T20:01:01.861Z,10.20
2023-02-05T20:03:29.350Z,6.37
2023-02-05T20:06:00.952Z,4.50
2023-02-05T20:08:29.296Z,4.70
2023-02-05T20:11:00.468Z,4.60
2023-02-05T20:13:28.205Z,5.20
2023-02-05T20:15:56.014Z,5.13
2023-02-05T20:18:23.619Z,4.83
2023-02-05T20:20:51.076Z,4.63
2023-02-05T20:23:21.210Z,4.27
2023-02-05T20:25:53.045Z,3.87
2023-02-05T20:28:20.473Z,4.13
2023-02-05T20:31:05.545Z,4.23
2023-02-05T20:33:32.988Z,3.73
2023-02-05T20:36:03.828Z,3.70
2023-02-05T20:38:32.632Z,4.40
2023-02-05T20:41:00.481Z,3.47
2023-02-05T20:43:27.949Z,4.10
2023-02-05T20:45:55.419Z,3.90
2023-02-05T20:48:22.935Z,7.07
2023-02-05T20:50:50.432Z,5.40
2023-02-05T20:53:17.871Z,3.40
2023-02-05T20:55:46.624Z,3.50
2023-02-05T20:58:14.124Z,3.97
2023-02-05T21:00:42.039Z,3.60
2023-02-05T21:03:09.466Z,3.80
2023-02-05T21:05:36.900Z,3.80
2023-02-05T21:08:04.286Z,3.20
2023-02-05T21:10:32.122Z,3.50
2023-02-05T21:13:00.943Z,2.73
2023-02-05T21:15:29.032Z,3.00
2023-02-05T21:17:56.404Z,2.83
2023-02-05T21:20:23.971Z,2.60
2023-02-05T21:22:51.413Z,3.53
2023-02-05T21:25:18.829Z,4.63
2023-02-05T21:27:46.250Z,3.70
2023-02-05T21:30:15.242Z,2.80
2023-02-05T21:32:42.653Z,3.20
2023-02-05T21:35:10.123Z,3.00
2023-02-05T21:37:38.854Z,3.23
2023-02-05T21:40:09.601Z,2.90
2023-02-05T21:42:37.395Z,2.40
2023-02-05T21:45:05.163Z,2.50
2023-02-05T21:47:33.948Z,2.30
2023-02-05T21:50:01.395Z,2.90
2023-02-05T21:52:28.902Z,2.40
2023-02-05T21:54:56.368Z,2.33
2023-02-05T21:57:24.798Z,2.53
2023-02-05T21:59:52.210Z,3.17
2023-02-05T22:02:19.783Z,2.40
2023-02-05T22:04:48.714Z,2.33
2023-02-05T22:07:16.213Z,3.50
2023-02-05T22:09:43.643Z,2.70
2023-02-05T22:12:11.249Z,3.70
2023-02-05T22:14:38.637Z,2.70
2023-02-05T22:17:06.102Z,2.37
2023-02-05T22:19:33.517Z,2.83
2023-02-05T22:22:02.795Z,3.37
2023-02-05T22:24:30.180Z,2.40
2023-02-05T22:26:57.727Z,3.23
2023-02-05T22:29:25.169Z,4.90
2023-02-05T22:31:54.023Z,3.50
2023-02-05T22:34:21.989Z,4.60
2023-02-05T22:36:49.456Z,5.50
2023-02-05T22:39:18.331Z,6.30
2023-02-05T22:41:45.728Z,7.53
2023-02-05T22:44:13.203Z,7.83
2023-02-05T22:46:42.273Z,7.33
2023-02-05T22:49:11.182Z,7.00
2023-02-05T22:51:39.259Z,4.23
2023-02-05T22:54:07.057Z,4.03
2023-02-05T22:56:35.868Z,3.80
2023-02-05T22:59:03.758Z,4.20
2023-02-05T23:01:32.137Z,3.37
2023-02-05T23:03:59.650Z,3.00
2023-02-05T23:06:27.966Z,3.03
2023-02-05T23:08:56.429Z,3.13
2023-02-05T23:11:24.485Z,3.70
2023-02-05T23:13:53.668Z,3.87
2023-02-05T23:16:21.796Z,4.07
2023-02-05T23:18:49.486Z,3.93
2023-02-05T23:21:17.714Z,4.10
2023-02-05T23:23:45.409Z,4.43
2023-02-05T23:26:14.042Z,3.60
2023-02-05T23:28:41.483Z,3.53
2023-02-05T23:31:10.424Z,3.90
2023-02-05T23:33:38.642Z,3.33
2023-02-05T23:36:07.336Z,3.50
2023-02-05T23:38:34.833Z,3.30
2023-02-05T23:41:02.721Z,3.60
2023-02-05T23:43:32.200Z,3.00
2023-02-05T23:45:59.713Z,3.60
2023-02-05T23:48:28.975Z,3.50
2023-02-05T23:50:57.356Z,3.40
2023-02-05T23:53:25.049Z,3.17
2023-02-05T23:55:53.447Z,3.30
2023-02-05T23:58:23.042Z,4.23
